createdAt,value
2018-09-02T00:00:16.968Z,98596.36
2018-09-02T00:02:45.193Z,98593.86
2018-09-02T00:05:13.358Z,98593.39
2018-09-02T00:07:41.589Z,98594.57
2018-09-02T00:10:09.857Z,98594.57
2018-09-02T00:12:38.061Z,98594.17
2018-09-02T00:15:06.399Z,98579.32
2018-09-02T00:17:34.649Z,98578.39
2018-09-02T00:20:03.309Z,98583.86
2018-09-02T00:22:31.521Z,98579.72
2018-09-02T00:24:59.689Z,98579.20
2018-09-02T00:27:27.881Z,98583.04
2018-09-02T00:29:56.070Z,98580.24
2018-09-02T00:32:24.330Z,98585.25
2018-09-02T00:34:52.578Z,98565.28
2018-09-02T00:37:20.745Z,98567.50
2018-09-02T00:39:48.977Z,98579.63
2018-09-02T00:42:17.231Z,98580.36
2018-09-02T00:44:45.506Z,98581.74
2018-09-02T00:47:13.786Z,98553.92
2018-09-02T00:49:41.981Z,98576.64
2018-09-02T00:52:10.168Z,98574.67
2018-09-02T00:54:38.339Z,98575.96
2018-09-02T00:57:06.534Z,98570.03
2018-09-02T00:59:34.695Z,98558.81
2018-09-02T01:02:03.079Z,98574.93
2018-09-02T01:04:31.262Z,98574.60
2018-09-02T01:06:59.535Z,98568.78
2018-09-02T01:09:27.781Z,98572.96
2018-09-02T01:11:55.951Z,98574.02
2018-09-02T01:14:24.166Z,98569.38
2018-09-02T01:16:52.361Z,98569.27
2018-09-02T01:19:20.534Z,98572.05
2018-09-02T01:21:48.701Z,98567.41
2018-09-02T01:24:16.994Z,98567.16
2018-09-02T01:26:45.170Z,98564.27
2018-09-02T01:29:13.334Z,98557.91
2018-09-02T01:31:41.529Z,98557.33
2018-09-02T01:34:09.701Z,98556.28
2018-09-02T01:36:37.878Z,98544.09
2018-09-02T01:39:07.078Z,98562.75
2018-09-02T01:41:35.289Z,98559.87
2018-09-02T01:44:03.478Z,98559.14
2018-09-02T01:46:31.701Z,98547.06
2018-09-02T01:48:59.862Z,98555.53
2018-09-02T01:51:28.098Z,98552.89
2018-09-02T01:53:56.282Z,98553.11
2018-09-02T01:56:24.472Z,98547.56
2018-09-02T01:58:52.725Z,98545.95
2018-09-02T02:01:20.914Z,98543.73
2018-09-02T02:03:49.401Z,98535.38
2018-09-02T02:06:17.561Z,98542.12
2018-09-02T02:08:45.741Z,98539.09
2018-09-02T02:11:13.971Z,98523.31
2018-09-02T02:13:42.137Z,98526.56
2018-09-02T02:16:10.348Z,98530.75
2018-09-02T02:18:38.635Z,98527.85
2018-09-02T02:21:06.969Z,98527.00
2018-09-02T02:23:35.213Z,98522.46
2018-09-02T02:26:03.508Z,98531.43
2018-09-02T02:28:31.796Z,98529.57
2018-09-02T02:31:00.090Z,98523.32
2018-09-02T02:33:28.361Z,98507.75
2018-09-02T02:35:56.533Z,98511.11
2018-09-02T02:38:24.746Z,98505.22
2018-09-02T02:40:53.037Z,98511.46
2018-09-02T02:43:21.321Z,98512.39
2018-09-02T02:45:49.602Z,98509.14
2018-09-02T02:48:17.841Z,98513.78
2018-09-02T02:50:46.041Z,98508.57
2018-09-02T02:53:14.213Z,98508.69
2018-09-02T02:55:42.410Z,98500.33
2018-09-02T02:58:10.589Z,98502.79
2018-09-02T03:00:38.762Z,98501.29
2018-09-02T03:03:07.028Z,98498.50
2018-09-02T03:05:35.314Z,98495.01
2018-09-02T03:08:03.492Z,98493.26
2018-09-02T03:10:31.661Z,98496.85
2018-09-02T03:12:59.841Z,98491.97
2018-09-02T03:15:28.023Z,98490.03
2018-09-02T03:17:56.193Z,98484.09
2018-09-02T03:20:24.385Z,98493.27
2018-09-02T03:22:52.609Z,98491.53
2018-09-02T03:25:20.798Z,98478.52
2018-09-02T03:27:48.962Z,98486.97
2018-09-02T03:30:17.144Z,98470.97
2018-09-02T03:32:45.322Z,98490.31
2018-09-02T03:35:13.500Z,98488.47
2018-09-02T03:37:41.710Z,98484.31
2018-09-02T03:40:09.891Z,98486.16
2018-09-02T03:42:38.090Z,98484.89
2018-09-02T03:45:06.317Z,98484.78
2018-09-02T03:47:34.602Z,98481.02
2018-09-02T03:50:02.791Z,98485.45
2018-09-02T03:52:31.065Z,98488.36
2018-09-02T03:54:59.294Z,98486.83
2018-09-02T03:57:27.539Z,98485.77
2018-09-02T03:59:56.555Z,98488.88
2018-09-02T04:02:24.830Z,98481.23
2018-09-02T04:04:53.028Z,98487.08
2018-09-02T04:07:21.221Z,98483.58
2018-09-02T04:09:49.441Z,98479.19
2018-09-02T04:12:17.691Z,98476.85
2018-09-02T04:14:45.881Z,98482.72
2018-09-02T04:17:14.089Z,98479.41
2018-09-02T04:19:42.289Z,98482.31
2018-09-02T04:22:10.485Z,98470.03
2018-09-02T04:24:38.702Z,98475.67
2018-09-02T04:27:06.881Z,98463.34
2018-09-02T04:29:35.162Z,98467.30
2018-09-02T04:32:03.434Z,98470.95
2018-09-02T04:34:31.709Z,98474.49
2018-09-02T04:36:59.946Z,98475.09
2018-09-02T04:39:28.145Z,98460.00
2018-09-02T04:41:56.425Z,98465.43
2018-09-02T04:44:24.600Z,98472.47
2018-09-02T04:46:52.824Z,98461.86
2018-09-02T04:49:21.074Z,98465.23
2018-09-02T04:51:49.313Z,98453.66
2018-09-02T04:54:17.524Z,98470.58
2018-09-02T04:56:45.753Z,98462.86
2018-09-02T04:59:13.949Z,98469.17
2018-09-02T05:01:42.137Z,98465.57
2018-09-02T05:04:10.405Z,98463.88
2018-09-02T05:06:38.933Z,98472.93
2018-09-02T05:09:07.154Z,98472.69
2018-09-02T05:11:35.342Z,98467.27
2018-09-02T05:14:03.597Z,98473.12
2018-09-02T05:16:31.731Z,98479.95
2018-09-02T05:18:59.909Z,98480.16
2018-09-02T05:21:28.127Z,98461.04
2018-09-02T05:23:56.309Z,98477.22
2018-09-02T05:26:24.625Z,98448.67
2018-09-02T05:28:53.064Z,98471.80
2018-09-02T05:31:21.476Z,98474.78
2018-09-02T05:33:49.646Z,98463.73
2018-09-02T05:36:17.865Z,98471.53
2018-09-02T05:38:46.064Z,98468.23
2018-09-02T05:41:14.245Z,98469.25
2018-09-02T05:43:42.518Z,98467.72
2018-09-02T05:46:10.701Z,98465.89
2018-09-02T05:48:38.897Z,98453.54
2018-09-02T05:51:07.223Z,98467.19
2018-09-02T05:53:35.409Z,98456.21
2018-09-02T05:56:03.599Z,98469.63
2018-09-02T05:58:31.842Z,98462.69
2018-09-02T06:01:00.038Z,98474.96
2018-09-02T06:03:28.311Z,98475.88
2018-09-02T06:05:56.529Z,98480.34
2018-09-02T06:08:24.841Z,98477.18
2018-09-02T06:10:53.099Z,98478.39
2018-09-02T06:13:21.298Z,98485.98
2018-09-02T06:15:49.479Z,98481.47
2018-09-02T06:18:17.661Z,98485.30
2018-09-02T06:20:45.849Z,98484.42
2018-09-02T06:23:14.037Z,98488.48
2018-09-02T06:25:42.227Z,98483.93
2018-09-02T06:28:10.495Z,98478.95
2018-09-02T06:30:38.685Z,98486.20
2018-09-02T06:33:06.961Z,98482.34
2018-09-02T06:35:35.173Z,98485.98
2018-09-02T06:38:03.421Z,98482.34
2018-09-02T06:40:31.659Z,98484.69
2018-09-02T06:42:59.926Z,98485.35
2018-09-02T06:45:28.149Z,98482.20
2018-09-02T06:47:56.344Z,98478.61
2018-09-02T06:50:24.540Z,98479.86
2018-09-02T06:52:52.762Z,98485.80
2018-09-02T06:55:20.943Z,98486.06
2018-09-02T06:57:49.129Z,98480.91
2018-09-02T07:00:17.306Z,98489.39
2018-09-02T07:02:45.489Z,98485.11
2018-09-02T07:05:13.689Z,98483.47
2018-09-02T07:07:42.011Z,98477.61
2018-09-02T07:10:10.273Z,98482.63
2018-09-02T07:12:38.502Z,98485.33
2018-09-02T07:15:06.789Z,98483.20
2018-09-02T07:17:35.030Z,98483.12
2018-09-02T07:20:03.362Z,98482.91
2018-09-02T07:22:31.609Z,98488.70
2018-09-02T07:24:59.797Z,98475.30
2018-09-02T07:27:28.115Z,98482.86
2018-09-02T07:29:56.307Z,98489.53
2018-09-02T07:32:24.505Z,98483.74
2018-09-02T07:34:52.777Z,98483.36
2018-09-02T07:37:21.185Z,98486.05
2018-09-02T07:39:49.384Z,98477.56
2018-09-02T07:42:17.613Z,98482.34
2018-09-02T07:44:45.836Z,98482.34
2018-09-02T07:47:14.501Z,98482.00
2018-09-02T07:49:42.715Z,98482.25
2018-09-02T07:52:10.912Z,98478.03
2018-09-02T07:54:39.194Z,98477.42
2018-09-02T07:57:07.478Z,98483.14
2018-09-02T07:59:35.729Z,98477.27
2018-09-02T08:02:03.965Z,98478.61
2018-09-02T08:04:32.204Z,98480.86
2018-09-02T08:07:00.417Z,98485.16
2018-09-02T08:09:28.691Z,98486.12
2018-09-02T08:11:56.986Z,98485.33
2018-09-02T08:14:25.170Z,98487.38
2018-09-02T08:16:53.462Z,98491.58
2018-09-02T08:19:21.783Z,98491.63
2018-09-02T08:21:50.030Z,98502.29
2018-09-02T08:24:18.237Z,98495.39
2018-09-02T08:26:46.513Z,98496.30
2018-09-02T08:29:14.605Z,98490.63
2018-09-02T08:31:42.814Z,98490.41
2018-09-02T08:34:11.053Z,98487.85
2018-09-02T08:36:39.261Z,98492.08
2018-09-02T08:39:09.343Z,98490.23
2018-09-02T08:41:37.582Z,98483.87
2018-09-02T08:44:06.092Z,98481.72
2018-09-02T08:46:34.249Z,98481.75
2018-09-02T08:49:02.542Z,98488.98
2018-09-02T08:51:31.656Z,98479.98
2018-09-02T08:53:59.937Z,98484.27
2018-09-02T08:56:28.228Z,98484.93
2018-09-02T08:58:56.421Z,98487.45
2018-09-02T09:01:24.727Z,98494.73
2018-09-02T09:03:53.274Z,98493.69
2018-09-02T09:06:21.519Z,98488.18
2018-09-02T09:08:50.050Z,98486.63
2018-09-02T09:11:18.423Z,98485.84
2018-09-02T09:13:46.622Z,98481.40
2018-09-02T09:16:14.821Z,98492.05
2018-09-02T09:18:42.997Z,98490.48
2018-09-02T09:21:11.218Z,98489.22
2018-09-02T09:23:39.401Z,98486.41
2018-09-02T09:26:07.857Z,98478.37
2018-09-02T09:28:36.107Z,98485.59
2018-09-02T09:31:04.362Z,98479.30
2018-09-02T09:33:32.541Z,98476.36
2018-09-02T09:36:00.730Z,98471.64
2018-09-02T09:38:28.951Z,98463.96
2018-09-02T09:40:57.217Z,98472.98
2018-09-02T09:43:25.388Z,98465.97
2018-09-02T09:45:53.651Z,98453.13
2018-09-02T09:48:21.793Z,98467.83
2018-09-02T09:50:49.977Z,98419.84
2018-09-02T09:53:18.153Z,98466.72
2018-09-02T09:55:46.443Z,98467.64
2018-09-02T09:58:14.625Z,98470.97
2018-09-02T10:00:48.712Z,98470.19
2018-09-02T10:03:17.396Z,98463.57
2018-09-02T10:05:45.679Z,98461.95
2018-09-02T10:08:13.943Z,98465.31
2018-09-02T10:10:42.854Z,98455.55
2018-09-02T10:13:11.176Z,98462.06
2018-09-02T10:15:39.719Z,98461.59
2018-09-02T10:18:08.190Z,98458.81
2018-09-02T10:20:36.443Z,98453.37
2018-09-02T10:23:05.021Z,98454.17
2018-09-02T10:25:33.473Z,98451.63
2018-09-02T10:28:04.706Z,98453.24
2018-09-02T10:30:32.949Z,98448.16
2018-09-02T10:33:01.242Z,98446.87
2018-09-02T10:35:29.518Z,98439.81
2018-09-02T10:37:57.805Z,98443.28
2018-09-02T10:40:25.985Z,98448.84
2018-09-02T10:42:54.190Z,98444.10
2018-09-02T10:45:22.514Z,98447.11
2018-09-02T10:47:50.780Z,98444.90
2018-09-02T10:50:19.075Z,98440.27
2018-09-02T10:52:47.387Z,98432.49
2018-09-02T10:55:15.703Z,98434.72
2018-09-02T10:57:43.902Z,98428.92
2018-09-02T11:00:12.102Z,98430.52
2018-09-02T11:02:40.850Z,98427.62
2018-09-02T11:05:09.577Z,98415.09
2018-09-02T11:07:37.813Z,98422.30
2018-09-02T11:10:06.621Z,98416.48
2018-09-02T11:12:34.903Z,98414.28
2018-09-02T11:15:03.189Z,98402.08
2018-09-02T11:17:31.366Z,98394.55
2018-09-02T11:19:59.686Z,98413.49
2018-09-02T11:22:27.933Z,98411.74
2018-09-02T11:24:56.213Z,98409.64
2018-09-02T11:27:24.506Z,98412.89
2018-09-02T11:29:52.685Z,98418.81
2018-09-02T11:32:20.978Z,98413.92
2018-09-02T11:34:49.360Z,98397.11
2018-09-02T11:37:17.569Z,98399.22
2018-09-02T11:39:45.960Z,98408.74
2018-09-02T11:42:14.249Z,98407.00
2018-09-02T11:44:42.537Z,98405.96
2018-09-02T11:47:10.834Z,98402.68
2018-09-02T11:49:40.018Z,98407.56
2018-09-02T11:52:08.318Z,98401.08
2018-09-02T11:54:36.531Z,98405.25
2018-09-02T11:57:04.762Z,98399.69
2018-09-02T11:59:36.786Z,98408.74
2018-09-02T12:02:05.210Z,98404.54
2018-09-02T12:04:33.458Z,98401.78
2018-09-02T12:07:01.726Z,98399.93
2018-09-02T12:09:29.901Z,98392.76
2018-09-02T12:11:58.163Z,98395.87
2018-09-02T12:14:26.382Z,98390.78
2018-09-02T12:16:54.593Z,98404.32
2018-09-02T12:19:22.862Z,98399.47
2018-09-02T12:21:51.078Z,98388.34
2018-09-02T12:24:19.537Z,98397.03
2018-09-02T12:26:47.741Z,98400.04
2018-09-02T12:29:16.037Z,98410.84
2018-09-02T12:31:45.086Z,98405.39
2018-09-02T12:34:13.349Z,98408.41
2018-09-02T12:36:41.537Z,98406.67
2018-09-02T12:39:10.073Z,98398.65
2018-09-02T12:41:38.274Z,98401.76
2018-09-02T12:44:06.481Z,98395.52
2018-09-02T12:46:35.041Z,98400.26
2018-09-02T12:49:03.254Z,98398.76
2018-09-02T12:51:31.552Z,98386.27
2018-09-02T12:53:59.737Z,98392.98
2018-09-02T12:56:28.041Z,98393.55
2018-09-02T12:58:56.298Z,98381.84
2018-09-02T13:01:24.651Z,98386.02
2018-09-02T13:03:52.865Z,98390.33
2018-09-02T13:06:21.155Z,98384.41
2018-09-02T13:08:49.537Z,98388.12
2018-09-02T13:11:17.819Z,98381.03
2018-09-02T13:13:46.038Z,98382.31
2018-09-02T13:16:14.221Z,98381.48
2018-09-02T13:18:42.422Z,98378.14
2018-09-02T13:21:10.629Z,98375.81
2018-09-02T13:23:38.809Z,98375.81
2018-09-02T13:26:07.064Z,98370.25
2018-09-02T13:28:35.341Z,98374.64
2018-09-02T13:31:03.541Z,98373.70
2018-09-02T13:33:31.817Z,98370.22
2018-09-02T13:36:00.106Z,98372.32
2018-09-02T13:38:28.311Z,98377.53
2018-09-02T13:40:56.505Z,98369.75
2018-09-02T13:43:24.763Z,98366.97
2018-09-02T13:45:53.972Z,98363.72
2018-09-02T13:48:22.217Z,98343.14
2018-09-02T13:50:50.458Z,98372.78
2018-09-02T13:53:18.670Z,98372.31
2018-09-02T13:55:46.938Z,98367.93
2018-09-02T13:58:15.146Z,98377.89
2018-09-02T14:00:43.421Z,98370.36
2018-09-02T14:03:11.698Z,98366.08
2018-09-02T14:05:39.896Z,98364.90
2018-09-02T14:08:08.293Z,98354.59
2018-09-02T14:10:36.422Z,98344.95
2018-09-02T14:13:04.769Z,98356.30
2018-09-02T14:15:32.982Z,98346.55
2018-09-02T14:18:01.246Z,98343.30
2018-09-02T14:20:29.439Z,98350.94
2018-09-02T14:22:57.692Z,98351.44
2018-09-02T14:25:25.977Z,98353.61
2018-09-02T14:27:54.246Z,98349.11
2018-09-02T14:30:22.471Z,98345.51
2018-09-02T14:32:50.746Z,98327.54
2018-09-02T14:35:19.021Z,98343.40
2018-09-02T14:37:47.245Z,98344.68
2018-09-02T14:40:15.462Z,98344.88
2018-09-02T14:42:43.705Z,98351.84
2018-09-02T14:45:11.932Z,98344.88
2018-09-02T14:47:40.174Z,98347.23
2018-09-02T14:50:08.410Z,98343.40
2018-09-02T14:52:36.656Z,98340.88
2018-09-02T14:55:04.986Z,98339.37
2018-09-02T14:57:33.581Z,98335.41
2018-09-02T15:00:01.906Z,98322.22
2018-09-02T15:02:30.210Z,98340.41
2018-09-02T15:04:58.526Z,98333.20
2018-09-02T15:07:27.073Z,98339.19
2018-09-02T15:09:55.542Z,98336.76
2018-09-02T15:12:24.370Z,98336.41
2018-09-02T15:14:52.829Z,98330.52
2018-09-02T15:17:21.463Z,98325.98
2018-09-02T15:19:50.651Z,98320.42
2018-09-02T15:22:20.130Z,98321.09
2018-09-02T15:24:48.329Z,98318.77
2018-09-02T15:27:16.693Z,98329.45
2018-09-02T15:29:44.881Z,98315.08
2018-09-02T15:32:13.277Z,98334.44
2018-09-02T15:34:41.582Z,98332.48
2018-09-02T15:37:09.846Z,98333.77
2018-09-02T15:39:38.165Z,98339.79
2018-09-02T15:42:06.379Z,98329.95
2018-09-02T15:44:34.637Z,98336.77
2018-09-02T15:47:02.954Z,98338.30
2018-09-02T15:49:31.162Z,98346.17
2018-09-02T15:51:59.405Z,98338.75
2018-09-02T15:54:27.701Z,98337.34
2018-09-02T15:56:55.954Z,98337.47
2018-09-02T15:59:24.358Z,98335.02
2018-09-02T16:01:52.621Z,98322.39
2018-09-02T16:04:20.921Z,98318.83
2018-09-02T16:06:49.206Z,98316.36
2018-09-02T16:09:17.381Z,98302.84
2018-09-02T16:11:45.617Z,98318.14
2018-09-02T16:14:13.859Z,98321.61
2018-09-02T16:16:42.097Z,98319.28
2018-09-02T16:19:10.381Z,98306.20
2018-09-02T16:21:38.745Z,98321.95
2018-09-02T16:24:06.937Z,98312.58
2018-09-02T16:26:35.216Z,98308.05
2018-09-02T16:29:04.452Z,98304.34
2018-09-02T16:31:32.712Z,98306.17
2018-09-02T16:34:08.439Z,98314.55
2018-09-02T16:36:39.622Z,98321.84
2018-09-02T16:39:09.037Z,98319.17
2018-09-02T16:41:37.437Z,98313.28
2018-09-02T16:44:05.781Z,98314.19
2018-09-02T16:46:34.105Z,98306.55
2018-09-02T16:49:02.435Z,98308.19
2018-09-02T16:51:30.709Z,98312.58
2018-09-02T16:53:58.989Z,98305.05
2018-09-02T16:56:27.174Z,98308.63
2018-09-02T16:58:55.462Z,98299.36
2018-09-02T17:01:23.641Z,98302.14
2018-09-02T17:03:55.225Z,98300.17
2018-09-02T17:06:23.422Z,98293.22
2018-09-02T17:08:51.701Z,98294.97
2018-09-02T17:11:19.898Z,98292.41
2018-09-02T17:13:48.164Z,98293.33
2018-09-02T17:16:16.929Z,98292.26
2018-09-02T17:18:45.309Z,98278.18
2018-09-02T17:21:13.586Z,98294.37
2018-09-02T17:23:41.826Z,98296.58
2018-09-02T17:26:10.155Z,98288.34
2018-09-02T17:28:38.383Z,98281.17
2018-09-02T17:31:06.626Z,98279.53
2018-09-02T17:36:15.270Z,98276.39
2018-09-02T17:38:43.618Z,98282.41
2018-09-02T17:41:11.809Z,98277.20
2018-09-02T17:43:40.030Z,98274.31
2018-09-02T17:46:08.243Z,98272.05
2018-09-02T17:48:36.445Z,98282.56
2018-09-02T17:51:04.629Z,98258.58
2018-09-02T17:53:32.829Z,98255.80
2018-09-02T17:56:01.026Z,98269.59
2018-09-02T17:58:29.253Z,98270.30
2018-09-02T18:00:58.778Z,98268.30
2018-09-02T18:03:26.967Z,98265.88
2018-09-02T18:05:55.993Z,98269.80
2018-09-02T18:08:24.326Z,98274.94
2018-09-02T18:10:52.466Z,98275.72
2018-09-02T18:13:20.690Z,98278.28
2018-09-02T18:15:48.890Z,98278.61
2018-09-02T18:18:17.058Z,98277.56
2018-09-02T18:20:46.310Z,98285.23
2018-09-02T18:23:14.540Z,98282.88
2018-09-02T18:25:42.737Z,98271.69
2018-09-02T18:28:13.861Z,98286.63
2018-09-02T18:30:42.057Z,98275.71
2018-09-02T18:33:10.237Z,98286.98
2018-09-02T18:35:38.437Z,98281.75
2018-09-02T18:38:06.638Z,98285.91
2018-09-02T18:40:34.838Z,98281.75
2018-09-02T18:43:03.045Z,98276.89
2018-09-02T18:45:31.294Z,98274.01
2018-09-02T18:47:59.465Z,98285.23
2018-09-02T18:50:27.666Z,98297.61
2018-09-02T18:52:55.870Z,98279.89
2018-09-02T18:55:24.066Z,98287.31
2018-09-02T18:57:52.262Z,98288.91
2018-09-02T19:00:20.453Z,98295.08
2018-09-02T19:02:48.691Z,98307.48
2018-09-02T19:05:16.857Z,98301.45
2018-09-02T19:07:45.049Z,98300.42
2018-09-02T19:10:13.355Z,98300.42
2018-09-02T19:12:41.597Z,98290.12
2018-09-02T19:15:09.804Z,98287.20
2018-09-02T19:17:38.134Z,98303.31
2018-09-02T19:20:07.027Z,98307.02
2018-09-02T19:22:35.237Z,98309.11
2018-09-02T19:25:03.459Z,98307.36
2018-09-02T19:27:31.806Z,98307.37
2018-09-02T19:30:00.034Z,98306.44
2018-09-02T19:32:28.226Z,98306.55
2018-09-02T19:34:56.533Z,98306.20
2018-09-02T19:37:24.854Z,98295.78
2018-09-02T19:39:53.130Z,98301.80
2018-09-02T19:42:21.382Z,98298.23
2018-09-02T19:44:49.656Z,98284.66
2018-09-02T19:47:17.851Z,98289.98
2018-09-02T19:49:46.155Z,98288.03
2018-09-02T19:52:14.448Z,98276.68
2018-09-02T19:54:43.045Z,98266.02
2018-09-02T19:57:11.311Z,98270.41
2018-09-02T19:59:39.516Z,98274.82
2018-09-02T20:02:07.885Z,98276.10
2018-09-02T20:04:36.066Z,98272.86
2018-09-02T20:07:04.257Z,98267.16
2018-09-02T20:09:32.485Z,98260.11
2018-09-02T20:12:00.683Z,98269.23
2018-09-02T20:14:28.882Z,98259.50
2018-09-02T20:16:57.088Z,98261.13
2018-09-02T20:19:25.308Z,98256.61
2018-09-02T20:21:53.594Z,98256.89
2018-09-02T20:24:21.898Z,98261.28
2018-09-02T20:26:50.210Z,98264.16
2018-09-02T20:29:18.589Z,98247.23
2018-09-02T20:31:46.773Z,98250.48
2018-09-02T20:34:15.042Z,98247.84
2018-09-02T20:36:43.241Z,98253.36
2018-09-02T20:39:11.493Z,98251.51
2018-09-02T20:41:39.697Z,98251.16
2018-09-02T20:44:08.262Z,98252.58
2018-09-02T20:46:36.501Z,98235.75
2018-09-02T20:49:04.986Z,98238.16
2018-09-02T20:51:33.269Z,98241.78
2018-09-02T20:54:01.596Z,98248.12
2018-09-02T20:56:29.833Z,98247.59
2018-09-02T20:58:58.025Z,98242.91
2018-09-02T21:01:26.308Z,98249.66
2018-09-02T21:03:54.641Z,98245.48
2018-09-02T21:06:22.909Z,98248.84
2018-09-02T21:08:51.173Z,98241.47
2018-09-02T21:11:19.507Z,98247.80
2018-09-02T21:13:48.809Z,98242.35
2018-09-02T21:16:17.250Z,98243.06
2018-09-02T21:18:45.461Z,98240.53
2018-09-02T21:21:13.777Z,98243.95
2018-09-02T21:23:42.101Z,98240.23
2018-09-02T21:26:10.310Z,98237.05
2018-09-02T21:28:38.701Z,98237.05
2018-09-02T21:31:07.078Z,98234.30
2018-09-02T21:33:35.501Z,98238.47
2018-09-02T21:36:03.693Z,98238.69
2018-09-02T21:38:32.014Z,98235.80
2018-09-02T21:41:00.309Z,98241.47
2018-09-02T21:43:28.593Z,98241.47
2018-09-02T21:45:56.859Z,98241.47
2018-09-02T21:48:25.371Z,98219.02
2018-09-02T21:50:53.653Z,98243.89
2018-09-02T21:53:22.001Z,98237.51
2018-09-02T21:55:50.218Z,98234.27
2018-09-02T21:58:18.435Z,98236.12
2018-09-02T22:00:46.737Z,98218.52
2018-09-02T22:03:15.147Z,98235.08
2018-09-02T22:05:47.389Z,98228.34
2018-09-02T22:08:15.614Z,98231.59
2018-09-02T22:10:44.109Z,98225.56
2018-09-02T22:13:12.424Z,98216.20
2018-09-02T22:15:41.287Z,98227.52
2018-09-02T22:18:09.525Z,98233.02
2018-09-02T22:20:37.880Z,98231.48
2018-09-02T22:23:06.239Z,98214.34
2018-09-02T22:25:34.518Z,98223.39
2018-09-02T22:28:02.749Z,98213.20
2018-09-02T22:30:31.826Z,98218.41
2018-09-02T22:33:00.144Z,98210.42
2018-09-02T22:35:28.450Z,98207.65
2018-09-02T22:37:56.769Z,98205.33
2018-09-02T22:40:25.197Z,98213.67
2018-09-02T22:42:53.475Z,98211.81
2018-09-02T22:45:27.365Z,98211.09
2018-09-02T22:47:55.958Z,98209.80
2018-09-02T22:50:32.551Z,98205.28
2018-09-02T22:53:01.681Z,98192.57
2018-09-02T22:55:30.105Z,98196.16
2018-09-02T22:57:58.501Z,98180.60
2018-09-02T23:00:26.708Z,98183.69
2018-09-02T23:02:54.982Z,98174.84
2018-09-02T23:05:23.318Z,98166.91
2018-09-02T23:07:51.557Z,98163.48
2018-09-02T23:10:19.837Z,98152.27
2018-09-02T23:12:48.073Z,98147.98
2018-09-02T23:15:16.434Z,98133.16
2018-09-02T23:17:45.636Z,98130.12
2018-09-02T23:20:13.843Z,98130.38
2018-09-02T23:22:42.125Z,98119.73
2018-09-02T23:25:10.442Z,98117.55
2018-09-02T23:27:38.709Z,98114.07
2018-09-02T23:30:07.005Z,98110.25
2018-09-02T23:32:35.201Z,98105.38
2018-09-02T23:35:03.506Z,98098.88
2018-09-02T23:37:31.733Z,98100.63
2018-09-02T23:39:59.985Z,98094.26
2018-09-02T23:42:28.242Z,98098.33
2018-09-02T23:44:56.430Z,98095.31
2018-09-02T23:47:24.703Z,98092.64
2018-09-02T23:49:52.961Z,98089.13
2018-09-02T23:52:21.193Z,98081.70
2018-09-02T23:54:49.381Z,98080.42
2018-09-02T23:57:17.574Z,98080.42
2018-09-02T23:59:45.846Z,98080.45
